createdAt,value
2023-01-04T00:00:06.388Z,0
2023-01-04T00:01:23.493Z,0
2023-01-04T00:02:39.619Z,0
2023-01-04T00:03:55.740Z,0
2023-01-04T00:05:11.866Z,0
2023-01-04T00:06:27.987Z,0
2023-01-04T00:07:45.092Z,0
2023-01-04T00:09:02.196Z,0
2023-01-04T00:11:36.406Z,0
2023-01-04T00:12:53.511Z,0
2023-01-04T00:14:10.616Z,0
2023-01-04T00:15:27.721Z,0
2023-01-04T00:16:44.826Z,0
2023-01-04T00:18:01.931Z,0
2023-01-04T00:19:19.035Z,0
2023-01-04T00:20:36.140Z,0
2023-01-04T00:21:53.245Z,0
2023-01-04T00:23:09.366Z,0
2023-01-04T00:24:26.471Z,0
2023-01-04T00:25:43.576Z,0
2023-01-04T00:27:00.681Z,0
2023-01-04T00:28:17.785Z,0
2023-01-04T00:29:34.890Z,0
2023-01-04T00:30:51.995Z,0
2023-01-04T00:32:09.100Z,0
2023-01-04T00:33:25.226Z,0
2023-01-04T00:34:41.347Z,0
2023-01-04T00:35:57.473Z,0
2023-01-04T00:37:13.594Z,0
2023-01-04T00:38:30.699Z,0
2023-01-04T00:39:47.803Z,0
2023-01-04T00:41:04.909Z,0
2023-01-04T00:42:22.013Z,0
2023-01-04T00:43:39.118Z,0
2023-01-04T00:44:56.223Z,0
2023-01-04T00:46:13.328Z,0
2023-01-04T00:47:30.433Z,0
2023-01-04T00:48:47.537Z,0
2023-01-04T00:50:04.642Z,0
2023-01-04T00:51:21.748Z,0
2023-01-04T00:52:38.852Z,0
2023-01-04T00:53:54.973Z,0
2023-01-04T00:55:12.078Z,0
2023-01-04T00:56:29.183Z,0
2023-01-04T00:57:46.287Z,0
2023-01-04T00:59:03.392Z,0
2023-01-04T01:00:20.497Z,0
2023-01-04T01:01:37.602Z,0
2023-01-04T01:02:53.728Z,0
2023-01-04T01:04:09.849Z,0
2023-01-04T01:05:25.975Z,0
2023-01-04T01:06:42.096Z,0
2023-01-04T01:07:59.201Z,0
2023-01-04T01:09:16.306Z,0
2023-01-04T01:10:33.411Z,0
2023-01-04T01:13:07.621Z,0
2023-01-04T01:14:24.725Z,0
2023-01-04T01:15:41.830Z,0
2023-01-04T01:16:58.935Z,0
2023-01-04T01:18:16.040Z,0
2023-01-04T01:19:33.145Z,0
2023-01-04T01:20:50.250Z,0
2023-01-04T01:22:07.354Z,0
2023-01-04T01:23:23.475Z,0
2023-01-04T01:24:40.580Z,0
2023-01-04T01:25:57.685Z,0
2023-01-04T01:27:14.790Z,0
2023-01-04T01:28:31.895Z,0
2023-01-04T01:29:49.000Z,0
2023-01-04T01:31:06.105Z,0
2023-01-04T01:32:23.209Z,0
2023-01-04T01:33:39.336Z,0
2023-01-04T01:34:55.456Z,0
2023-01-04T01:36:11.583Z,0
2023-01-04T01:37:27.703Z,0
2023-01-04T01:38:44.808Z,0
2023-01-04T01:40:01.913Z,0
2023-01-04T01:41:19.018Z,0
2023-01-04T01:42:36.122Z,0
2023-01-04T01:43:53.227Z,0
2023-01-04T01:45:10.332Z,0
2023-01-04T01:46:27.437Z,0
2023-01-04T01:47:44.542Z,0
2023-01-04T01:49:01.646Z,0
2023-01-04T01:50:18.751Z,0
2023-01-04T01:51:35.856Z,0
2023-01-04T01:52:52.961Z,0
2023-01-04T01:54:09.082Z,0
2023-01-04T01:55:26.186Z,0
2023-01-04T01:56:43.292Z,0
2023-01-04T01:58:00.396Z,0
2023-01-04T01:59:17.501Z,0
2023-01-04T02:00:34.606Z,0
2023-01-04T02:01:51.711Z,0
2023-01-04T02:03:07.837Z,0
2023-01-04T02:04:23.958Z,0
2023-01-04T02:05:40.084Z,0
2023-01-04T02:06:56.205Z,0
2023-01-04T02:08:13.309Z,0
2023-01-04T02:09:30.414Z,0
2023-01-04T02:10:47.519Z,0
2023-01-04T02:12:04.624Z,0
2023-01-04T02:13:21.729Z,0
2023-01-04T02:14:38.833Z,0
2023-01-04T02:15:55.938Z,0
2023-01-04T02:17:13.043Z,0
2023-01-04T02:18:30.148Z,0
2023-01-04T02:19:47.253Z,0
2023-01-04T02:21:04.357Z,0
2023-01-04T02:22:21.462Z,0
2023-01-04T02:23:37.583Z,0
2023-01-04T02:24:54.688Z,0
2023-01-04T02:26:11.793Z,0
2023-01-04T02:27:28.897Z,0
2023-01-04T02:28:46.002Z,0
2023-01-04T02:30:03.107Z,0
2023-01-04T02:31:20.212Z,0
2023-01-04T02:32:36.338Z,0
2023-01-04T02:33:52.459Z,0
2023-01-04T02:35:08.585Z,0
2023-01-04T02:36:24.706Z,0
2023-01-04T02:37:41.810Z,0
2023-01-04T02:38:58.916Z,0
2023-01-04T02:40:16.020Z,0
2023-01-04T02:41:33.125Z,0
2023-01-04T02:42:50.230Z,0
2023-01-04T02:44:07.335Z,0
2023-01-04T02:45:24.439Z,0
2023-01-04T02:46:41.544Z,0
2023-01-04T02:47:58.649Z,0
2023-01-04T02:49:15.754Z,0
2023-01-04T02:50:32.859Z,0
2023-01-04T02:51:49.964Z,0
2023-01-04T02:53:06.085Z,0
2023-01-04T02:54:23.189Z,0
2023-01-04T02:55:40.294Z,0
2023-01-04T02:56:57.399Z,0
2023-01-04T02:58:14.504Z,0
2023-01-04T02:59:31.608Z,0
2023-01-04T03:00:48.713Z,0
2023-01-04T03:02:04.840Z,0
2023-01-04T03:03:20.960Z,0
2023-01-04T03:04:37.087Z,0
2023-01-04T03:05:53.208Z,0
2023-01-04T03:07:10.312Z,0
2023-01-04T03:08:27.417Z,0
2023-01-04T03:09:44.522Z,0
2023-01-04T03:11:01.627Z,0
2023-01-04T03:12:18.731Z,0
2023-01-04T03:13:35.836Z,0
2023-01-04T03:14:52.941Z,0
2023-01-04T03:16:10.046Z,0
2023-01-04T03:17:27.151Z,0
2023-01-04T03:18:44.256Z,0
2023-01-04T03:20:01.360Z,0
2023-01-04T03:21:18.465Z,0
2023-01-04T03:22:34.586Z,0
2023-01-04T03:23:51.691Z,0
2023-01-04T03:25:08.796Z,0
2023-01-04T03:26:25.900Z,0
2023-01-04T03:27:43.006Z,0
2023-01-04T03:29:00.110Z,0
2023-01-04T03:30:17.215Z,0
2023-01-04T03:31:33.341Z,0
2023-01-04T03:32:49.462Z,0
2023-01-04T03:34:06.567Z,0
2023-01-04T03:35:23.672Z,0
2023-01-04T03:36:40.777Z,0
2023-01-04T03:37:57.881Z,0
2023-01-04T03:39:14.986Z,0
2023-01-04T03:40:32.091Z,0
2023-01-04T03:41:49.196Z,0
2023-01-04T03:43:06.301Z,0
2023-01-04T03:44:23.406Z,0
2023-01-04T03:45:40.510Z,0
2023-01-04T03:46:57.615Z,0
2023-01-04T03:48:14.720Z,0
2023-01-04T03:49:30.841Z,0
2023-01-04T03:50:47.946Z,0
2023-01-04T03:52:05.051Z,0
2023-01-04T03:53:22.156Z,0
2023-01-04T03:54:39.260Z,0
2023-01-04T03:55:56.365Z,0
2023-01-04T03:57:13.470Z,0
2023-01-04T03:58:29.596Z,0
2023-01-04T03:59:45.717Z,0
2023-01-04T04:01:01.843Z,0
2023-01-04T04:02:17.964Z,0
2023-01-04T04:03:34.090Z,0
2023-01-04T04:04:50.211Z,0
2023-01-04T04:06:07.317Z,0
2023-01-04T04:07:24.421Z,0
2023-01-04T04:08:41.526Z,0
2023-01-04T04:09:58.631Z,0
2023-01-04T04:11:15.736Z,0
2023-01-04T04:12:32.842Z,0
2023-01-04T04:13:49.947Z,0
2023-01-04T04:15:07.051Z,0
2023-01-04T04:16:24.156Z,0
2023-01-04T04:17:41.261Z,0
2023-01-04T04:18:58.366Z,0
2023-01-04T04:20:15.471Z,0
2023-01-04T04:21:31.592Z,0
2023-01-04T04:22:48.696Z,0
2023-01-04T04:24:05.801Z,0
2023-01-04T04:25:22.906Z,0
2023-01-04T04:26:40.010Z,0
2023-01-04T04:27:57.115Z,0
2023-01-04T04:29:14.220Z,0
2023-01-04T04:30:30.346Z,0
2023-01-04T04:31:46.467Z,0
2023-01-04T04:33:03.572Z,0
2023-01-04T04:34:19.698Z,0
2023-01-04T04:35:35.819Z,0
2023-01-04T04:36:52.924Z,0
2023-01-04T04:38:10.028Z,0
2023-01-04T04:39:27.133Z,0
2023-01-04T04:40:44.238Z,0
2023-01-04T04:42:01.343Z,0
2023-01-04T04:43:18.447Z,0
2023-01-04T04:44:35.552Z,0
2023-01-04T04:45:52.657Z,0
2023-01-04T04:47:09.762Z,0
2023-01-04T04:48:26.867Z,0
2023-01-04T04:49:43.971Z,0
2023-01-04T04:51:01.076Z,0
2023-01-04T04:52:17.197Z,0
2023-01-04T04:53:34.303Z,0
2023-01-04T04:54:51.408Z,0
2023-01-04T04:56:08.512Z,0
2023-01-04T04:57:25.617Z,0
2023-01-04T04:58:42.722Z,0
2023-01-04T04:59:59.827Z,0
2023-01-04T05:01:15.953Z,0
2023-01-04T05:02:32.074Z,0
2023-01-04T05:03:48.200Z,0
2023-01-04T05:05:04.321Z,0
2023-01-04T05:06:21.426Z,0
2023-01-04T05:07:38.530Z,0
2023-01-04T05:08:55.635Z,0
2023-01-04T05:10:12.740Z,0
2023-01-04T05:12:46.950Z,0
2023-01-04T05:14:04.055Z,0
2023-01-04T05:15:21.159Z,0
2023-01-04T05:16:38.264Z,0
2023-01-04T05:17:55.369Z,0
2023-01-04T05:19:12.474Z,0
2023-01-04T05:20:29.579Z,0
2023-01-04T05:21:45.699Z,0
2023-01-04T05:23:02.804Z,0
2023-01-04T05:24:19.909Z,0
2023-01-04T05:25:37.014Z,0
2023-01-04T05:26:54.119Z,0
2023-01-04T05:28:11.224Z,0
2023-01-04T05:29:28.328Z,0
2023-01-04T05:30:45.433Z,0
2023-01-04T05:32:01.559Z,0
2023-01-04T05:33:17.680Z,0
2023-01-04T05:34:33.806Z,0
2023-01-04T05:35:49.927Z,0
2023-01-04T05:37:07.032Z,0
2023-01-04T05:38:24.136Z,0
2023-01-04T05:39:41.241Z,0
2023-01-04T05:40:57.362Z,0
2023-01-04T05:42:14.467Z,0
2023-01-04T05:43:31.572Z,0
2023-01-04T05:44:48.677Z,0
2023-01-04T05:46:05.781Z,0
2023-01-04T05:47:22.886Z,0
2023-01-04T05:48:39.991Z,0
2023-01-04T05:49:57.096Z,0
2023-01-04T05:51:14.200Z,0
2023-01-04T05:52:31.305Z,0
2023-01-04T05:53:48.410Z,0
2023-01-04T05:55:05.515Z,0
2023-01-04T05:56:22.619Z,0
2023-01-04T05:57:38.740Z,0
2023-01-04T05:58:55.845Z,0
2023-01-04T06:00:12.950Z,0
2023-01-04T06:01:29.076Z,0
2023-01-04T06:02:45.197Z,0
2023-01-04T06:04:01.323Z,0
2023-01-04T06:05:17.444Z,0
2023-01-04T06:06:34.548Z,0
2023-01-04T06:07:51.653Z,0
2023-01-04T06:09:08.758Z,0
2023-01-04T06:10:25.863Z,0
2023-01-04T06:11:42.968Z,0
2023-01-04T06:13:00.073Z,0
2023-01-04T06:14:17.177Z,0
2023-01-04T06:15:34.282Z,0
2023-01-04T06:16:51.388Z,0
2023-01-04T06:18:08.493Z,0
2023-01-04T06:19:25.598Z,0
2023-01-04T06:20:42.702Z,0
2023-01-04T06:21:58.823Z,0
2023-01-04T06:23:15.928Z,0
2023-01-04T06:24:33.033Z,0
2023-01-04T06:25:50.137Z,0
2023-01-04T06:27:07.242Z,0
2023-01-04T06:28:24.347Z,0
2023-01-04T06:29:41.451Z,0
2023-01-04T06:30:57.577Z,0
2023-01-04T06:32:13.698Z,0
2023-01-04T06:33:29.824Z,0
2023-01-04T06:34:45.945Z,0
2023-01-04T06:36:03.050Z,0
2023-01-04T06:37:20.155Z,0
2023-01-04T06:38:37.259Z,0
2023-01-04T06:39:54.364Z,0
2023-01-04T06:41:11.469Z,0
2023-01-04T06:42:28.574Z,0
2023-01-04T06:43:45.678Z,0
2023-01-04T06:45:02.783Z,0
2023-01-04T06:46:19.888Z,0
2023-01-04T06:47:36.993Z,0
2023-01-04T06:48:54.097Z,0
2023-01-04T06:50:11.202Z,0
2023-01-04T06:51:27.323Z,0
2023-01-04T06:52:44.428Z,0
2023-01-04T06:54:01.532Z,0
2023-01-04T06:55:18.637Z,0
2023-01-04T06:56:35.742Z,0
2023-01-04T06:57:52.848Z,0
2023-01-04T06:59:09.953Z,0
2023-01-04T07:00:26.079Z,0
2023-01-04T07:01:42.199Z,0
2023-01-04T07:02:59.304Z,0
2023-01-04T07:04:15.430Z,0
2023-01-04T07:05:31.551Z,0
2023-01-04T07:06:48.656Z,0
2023-01-04T07:08:05.760Z,0
2023-01-04T07:09:22.865Z,0
2023-01-04T07:10:39.970Z,0
2023-01-04T07:11:57.074Z,0
2023-01-04T07:13:14.179Z,0
2023-01-04T07:14:31.284Z,0
2023-01-04T07:15:48.389Z,0
2023-01-04T07:17:05.494Z,0
2023-01-04T07:18:22.598Z,0
2023-01-04T07:19:39.703Z,0
2023-01-04T07:20:56.808Z,0
2023-01-04T07:22:12.928Z,0
2023-01-04T07:23:30.033Z,0
2023-01-04T07:24:47.138Z,0
2023-01-04T07:26:04.244Z,0
2023-01-04T07:27:21.349Z,0
2023-01-04T07:28:38.453Z,0
2023-01-04T07:29:55.558Z,0
2023-01-04T07:31:11.684Z,0
2023-01-04T07:32:27.805Z,0
2023-01-04T07:33:43.931Z,0
2023-01-04T07:35:00.052Z,0
2023-01-04T07:36:17.156Z,0
2023-01-04T07:37:34.261Z,0
2023-01-04T07:38:51.366Z,0
2023-01-04T07:40:08.471Z,0
2023-01-04T07:41:25.575Z,0
2023-01-04T07:42:42.680Z,0
2023-01-04T07:43:59.784Z,0
2023-01-04T07:45:16.889Z,0
2023-01-04T07:46:33.994Z,0
2023-01-04T07:47:51.098Z,5
2023-01-04T07:49:08.203Z,5
2023-01-04T07:50:25.308Z,5
2023-01-04T07:51:41.429Z,5
2023-01-04T07:52:58.533Z,5
2023-01-04T07:54:15.638Z,5
2023-01-04T07:55:32.743Z,5
2023-01-04T07:56:49.847Z,5
2023-01-04T07:58:06.952Z,5
2023-01-04T08:00:41.161Z,5
2023-01-04T08:01:57.287Z,5
2023-01-04T08:03:13.408Z,5
2023-01-04T08:04:29.534Z,5
2023-01-04T08:05:45.654Z,5
2023-01-04T08:07:02.759Z,11
2023-01-04T08:08:19.864Z,11
2023-01-04T08:09:36.969Z,11
2023-01-04T08:10:54.073Z,11
2023-01-04T08:12:11.178Z,11
2023-01-04T08:13:28.283Z,11
2023-01-04T08:14:45.387Z,11
2023-01-04T08:16:02.492Z,11
2023-01-04T08:17:19.597Z,11
2023-01-04T08:18:36.702Z,11
2023-01-04T08:19:53.806Z,11
2023-01-04T08:21:10.911Z,11
2023-01-04T08:22:27.032Z,11
2023-01-04T08:23:44.136Z,11
2023-01-04T08:25:01.241Z,16
2023-01-04T08:26:18.345Z,11
2023-01-04T08:27:35.450Z,11
2023-01-04T08:28:52.555Z,11
2023-01-04T08:30:09.660Z,11
2023-01-04T08:31:25.786Z,16
2023-01-04T08:32:41.906Z,22
2023-01-04T08:33:59.011Z,16
2023-01-04T08:35:16.116Z,16
2023-01-04T08:36:32.242Z,11
2023-01-04T08:37:48.362Z,11
2023-01-04T08:39:05.467Z,16
2023-01-04T08:40:22.572Z,11
2023-01-04T08:41:39.676Z,16
2023-01-04T08:42:56.781Z,16
2023-01-04T08:44:13.886Z,16
2023-01-04T08:45:30.990Z,16
2023-01-04T08:46:48.095Z,16
2023-01-04T08:48:05.199Z,16
2023-01-04T08:49:22.304Z,16
2023-01-04T08:50:39.409Z,22
2023-01-04T08:51:56.513Z,22
2023-01-04T08:53:13.618Z,28
2023-01-04T08:54:30.723Z,28
2023-01-04T08:55:46.844Z,28
2023-01-04T08:57:03.948Z,28
2023-01-04T08:58:21.053Z,33
2023-01-04T08:59:38.157Z,33
2023-01-04T09:00:55.262Z,28
2023-01-04T09:02:12.367Z,28
2023-01-04T09:03:28.493Z,22
2023-01-04T09:04:44.613Z,22
2023-01-04T09:06:00.739Z,16
2023-01-04T09:07:16.860Z,16
2023-01-04T09:08:33.965Z,16
2023-01-04T09:09:51.069Z,16
2023-01-04T09:11:08.174Z,16
2023-01-04T09:12:25.279Z,22
2023-01-04T09:13:42.384Z,22
2023-01-04T09:14:59.488Z,22
2023-01-04T09:16:16.593Z,22
2023-01-04T09:17:33.698Z,28
2023-01-04T09:18:50.802Z,28
2023-01-04T09:20:07.907Z,33
2023-01-04T09:21:25.012Z,33
2023-01-04T09:22:42.116Z,39
2023-01-04T09:23:58.237Z,45
2023-01-04T09:25:15.342Z,39
2023-01-04T09:26:32.446Z,39
2023-01-04T09:27:49.551Z,39
2023-01-04T09:29:06.655Z,39
2023-01-04T09:30:23.760Z,45
2023-01-04T09:32:57.969Z,56
2023-01-04T09:34:15.074Z,61
2023-01-04T09:35:32.179Z,61
2023-01-04T09:36:49.283Z,56
2023-01-04T09:38:06.388Z,45
2023-01-04T09:39:23.492Z,39
2023-01-04T09:40:39.613Z,45
2023-01-04T09:41:55.739Z,45
2023-01-04T09:43:11.860Z,45
2023-01-04T09:44:27.986Z,50
2023-01-04T09:45:44.106Z,50
2023-01-04T09:48:18.316Z,50
2023-01-04T09:49:35.420Z,50
2023-01-04T09:50:52.525Z,45
2023-01-04T09:52:09.630Z,45
2023-01-04T09:53:26.734Z,45
2023-01-04T09:54:43.839Z,45
2023-01-04T09:56:00.943Z,50
2023-01-04T09:57:18.048Z,50
2023-01-04T09:58:34.169Z,50
2023-01-04T09:59:51.273Z,50
2023-01-04T10:01:08.378Z,67
2023-01-04T10:02:25.483Z,73
2023-01-04T10:03:42.587Z,78
2023-01-04T10:04:59.692Z,78
2023-01-04T10:06:16.796Z,73
2023-01-04T10:07:33.901Z,73
2023-01-04T10:08:51.005Z,73
2023-01-04T10:10:08.110Z,78
2023-01-04T10:11:25.215Z,73
2023-01-04T10:12:41.341Z,67
2023-01-04T10:13:57.462Z,67
2023-01-04T10:15:13.588Z,67
2023-01-04T10:16:29.708Z,67
2023-01-04T10:17:46.813Z,67
2023-01-04T10:19:03.917Z,67
2023-01-04T10:20:21.022Z,61
2023-01-04T10:21:38.126Z,61
2023-01-04T10:22:55.231Z,67
2023-01-04T10:24:12.336Z,73
2023-01-04T10:25:29.440Z,67
2023-01-04T10:26:46.545Z,67
2023-01-04T10:28:03.650Z,67
2023-01-04T10:29:20.754Z,61
2023-01-04T10:30:37.859Z,67
2023-01-04T10:31:54.963Z,61
2023-01-04T10:33:11.084Z,67
2023-01-04T10:34:28.189Z,61
2023-01-04T10:35:45.293Z,67
2023-01-04T10:37:02.398Z,73
2023-01-04T10:38:19.503Z,84
2023-01-04T10:39:36.608Z,84
2023-01-04T10:40:53.712Z,84
2023-01-04T10:42:10.817Z,73
2023-01-04T10:43:27.921Z,67
2023-01-04T10:44:45.026Z,73
2023-01-04T10:46:02.131Z,78
2023-01-04T10:47:19.235Z,90
2023-01-04T10:48:36.340Z,90
2023-01-04T10:49:52.467Z,73
2023-01-04T10:51:08.587Z,67
2023-01-04T10:52:25.692Z,61
2023-01-04T10:53:42.797Z,73
2023-01-04T10:54:59.902Z,67
2023-01-04T10:56:17.006Z,50
2023-01-04T10:57:34.111Z,39
2023-01-04T10:58:50.237Z,45
2023-01-04T11:00:06.358Z,50
2023-01-04T11:01:23.462Z,50
2023-01-04T11:02:40.567Z,56
2023-01-04T11:03:57.672Z,78
2023-01-04T11:05:14.776Z,101
2023-01-04T11:06:31.881Z,129
2023-01-04T11:07:48.985Z,146
2023-01-04T11:09:06.090Z,146
2023-01-04T11:10:23.194Z,140
2023-01-04T11:11:40.299Z,135
2023-01-04T11:12:57.404Z,101
2023-01-04T11:14:14.509Z,101
2023-01-04T11:15:31.613Z,84
2023-01-04T11:16:48.839Z,95
2023-01-04T11:18:05.944Z,112
2023-01-04T11:19:23.049Z,135
2023-01-04T11:20:40.153Z,168
2023-01-04T11:21:57.258Z,140
2023-01-04T11:23:14.362Z,146
2023-01-04T11:24:31.467Z,157
2023-01-04T11:25:48.572Z,135
2023-01-04T11:27:05.677Z,140
2023-01-04T11:28:22.781Z,157
2023-01-04T11:29:39.886Z,157
2023-01-04T11:30:56.991Z,163
2023-01-04T11:32:14.095Z,180
2023-01-04T11:33:30.216Z,157
2023-01-04T11:34:47.321Z,140
2023-01-04T11:36:04.425Z,135
2023-01-04T11:37:21.530Z,135
2023-01-04T11:38:38.635Z,123
2023-01-04T11:39:55.740Z,101
2023-01-04T11:41:12.844Z,118
2023-01-04T11:42:29.949Z,118
2023-01-04T11:43:47.054Z,123
2023-01-04T11:45:04.158Z,123
2023-01-04T11:46:21.263Z,112
2023-01-04T11:47:38.368Z,123
2023-01-04T11:48:55.473Z,135
2023-01-04T11:50:11.594Z,146
2023-01-04T11:51:28.699Z,151
2023-01-04T11:52:45.803Z,151
2023-01-04T11:54:02.908Z,140
2023-01-04T11:55:20.013Z,146
2023-01-04T11:56:37.117Z,112
2023-01-04T11:57:54.222Z,106
2023-01-04T11:59:11.327Z,146
2023-01-04T12:00:28.432Z,157
2023-01-04T12:01:45.536Z,157
2023-01-04T12:03:02.641Z,140
2023-01-04T12:04:19.746Z,140
2023-01-04T12:05:36.850Z,118
2023-01-04T12:06:52.971Z,129
2023-01-04T12:08:10.076Z,123
2023-01-04T12:09:27.181Z,106
2023-01-04T12:10:44.286Z,106
2023-01-04T12:12:01.390Z,101
2023-01-04T12:13:18.495Z,112
2023-01-04T12:14:35.600Z,118
2023-01-04T12:15:52.704Z,118
2023-01-04T12:17:09.809Z,123
2023-01-04T12:18:26.914Z,112
2023-01-04T12:19:44.018Z,118
2023-01-04T12:21:01.123Z,118
2023-01-04T12:22:18.228Z,129
2023-01-04T12:23:34.349Z,123
2023-01-04T12:24:51.453Z,106
2023-01-04T12:26:08.558Z,101
2023-01-04T12:27:25.663Z,90
2023-01-04T12:28:42.767Z,84
2023-01-04T12:29:59.872Z,73
2023-01-04T12:31:16.977Z,67
2023-01-04T12:32:34.082Z,78
2023-01-04T12:33:51.186Z,78
2023-01-04T12:35:08.291Z,84
2023-01-04T12:36:25.396Z,95
2023-01-04T12:37:42.500Z,101
2023-01-04T12:38:59.605Z,95
2023-01-04T12:40:15.726Z,106
2023-01-04T12:41:32.831Z,101
2023-01-04T12:42:48.957Z,90
2023-01-04T12:44:05.077Z,84
2023-01-04T12:45:22.182Z,78
2023-01-04T12:46:39.287Z,84
2023-01-04T12:47:56.392Z,90
2023-01-04T12:49:12.518Z,90
2023-01-04T12:50:28.638Z,95
2023-01-04T12:51:45.743Z,101
2023-01-04T12:53:02.848Z,95
2023-01-04T12:54:19.953Z,101
2023-01-04T12:55:37.057Z,123
2023-01-04T12:56:54.162Z,123
2023-01-04T12:58:11.267Z,118
2023-01-04T12:59:28.373Z,112
2023-01-04T13:00:45.477Z,106
2023-01-04T13:02:02.582Z,106
2023-01-04T13:03:19.687Z,101
2023-01-04T13:04:36.791Z,112
2023-01-04T13:05:53.896Z,123
2023-01-04T13:07:10.017Z,123
2023-01-04T13:08:27.121Z,118
2023-01-04T13:09:44.226Z,129
2023-01-04T13:11:01.330Z,112
2023-01-04T13:12:18.435Z,123
2023-01-04T13:13:35.540Z,135
2023-01-04T13:14:52.644Z,129
2023-01-04T13:16:08.770Z,123
2023-01-04T13:17:24.890Z,123
2023-01-04T13:18:41.995Z,112
2023-01-04T13:19:59.100Z,106
2023-01-04T13:21:15.226Z,112
2023-01-04T13:22:31.346Z,106
2023-01-04T13:23:48.451Z,95
2023-01-04T13:25:05.555Z,90
2023-01-04T13:26:22.660Z,95
2023-01-04T13:27:39.766Z,95
2023-01-04T13:28:56.870Z,84
2023-01-04T13:30:13.975Z,78
2023-01-04T13:31:31.080Z,73
2023-01-04T13:32:48.184Z,67
2023-01-04T13:34:05.289Z,78
2023-01-04T13:35:22.394Z,84
2023-01-04T13:36:39.499Z,90
2023-01-04T13:37:56.603Z,101
2023-01-04T13:39:12.724Z,95
2023-01-04T13:40:29.829Z,95
2023-01-04T13:41:46.934Z,90
2023-01-04T13:43:04.038Z,84
2023-01-04T13:44:21.143Z,73
2023-01-04T13:45:38.247Z,67
2023-01-04T13:46:55.352Z,84
2023-01-04T13:48:11.478Z,84
2023-01-04T13:49:27.599Z,78
2023-01-04T13:50:43.725Z,73
2023-01-04T13:51:59.846Z,73
2023-01-04T13:53:16.951Z,73
2023-01-04T13:54:34.056Z,78
2023-01-04T13:55:51.160Z,73
2023-01-04T13:57:08.265Z,67
2023-01-04T13:58:25.370Z,84
2023-01-04T13:59:42.474Z,84
2023-01-04T14:00:59.579Z,73
2023-01-04T14:02:16.684Z,84
2023-01-04T14:03:33.789Z,78
2023-01-04T14:04:50.894Z,67
2023-01-04T14:06:07.998Z,67
2023-01-04T14:07:25.103Z,73
2023-01-04T14:09:58.329Z,73
2023-01-04T14:11:15.433Z,67
2023-01-04T14:12:32.538Z,67
2023-01-04T14:13:49.643Z,73
2023-01-04T14:15:06.748Z,67
2023-01-04T14:16:22.868Z,67
2023-01-04T14:17:39.973Z,61
2023-01-04T14:18:56.099Z,67
2023-01-04T14:20:12.220Z,61
2023-01-04T14:21:29.325Z,61
2023-01-04T14:22:45.451Z,61
2023-01-04T14:24:01.572Z,56
2023-01-04T14:25:18.676Z,61
2023-01-04T14:26:35.781Z,56
2023-01-04T14:27:52.886Z,50
2023-01-04T14:29:09.990Z,50
2023-01-04T14:30:27.095Z,50
2023-01-04T14:31:44.200Z,39
2023-01-04T14:33:01.305Z,39
2023-01-04T14:34:18.409Z,39
2023-01-04T14:35:35.514Z,33
2023-01-04T14:36:52.620Z,28
2023-01-04T14:38:09.725Z,28
2023-01-04T14:39:26.829Z,33
2023-01-04T14:40:42.950Z,28
2023-01-04T14:42:00.055Z,33
2023-01-04T14:43:17.160Z,33
2023-01-04T14:44:34.265Z,33
2023-01-04T14:45:51.369Z,33
2023-01-04T14:47:08.475Z,22
2023-01-04T14:48:25.580Z,22
2023-01-04T14:49:42.684Z,16
2023-01-04T14:50:59.789Z,16
2023-01-04T14:52:16.894Z,11
2023-01-04T14:53:33.999Z,11
2023-01-04T14:54:51.103Z,11
2023-01-04T14:56:07.230Z,16
2023-01-04T14:57:23.350Z,16
2023-01-04T14:58:40.455Z,22
2023-01-04T14:59:57.560Z,11
2023-01-04T15:01:13.686Z,11
2023-01-04T15:02:29.807Z,5
2023-01-04T15:03:46.911Z,5
2023-01-04T15:05:04.016Z,5
2023-01-04T15:06:21.121Z,5
2023-01-04T15:07:38.226Z,5
2023-01-04T15:08:55.331Z,5
2023-01-04T15:10:12.435Z,5
2023-01-04T15:11:29.540Z,5
2023-01-04T15:12:46.645Z,0
2023-01-04T15:14:03.750Z,5
2023-01-04T15:15:20.854Z,5
2023-01-04T15:16:37.959Z,5
2023-01-04T15:17:55.064Z,0
2023-01-04T15:19:11.184Z,0
2023-01-04T15:20:28.290Z,0
2023-01-04T15:21:45.394Z,0
2023-01-04T15:23:02.499Z,5
2023-01-04T15:24:19.604Z,0
2023-01-04T15:25:36.709Z,0
2023-01-04T15:26:53.813Z,0
2023-01-04T15:28:09.939Z,0
2023-01-04T15:29:26.060Z,0
2023-01-04T15:30:42.186Z,0
2023-01-04T15:31:58.307Z,0
2023-01-04T15:33:15.412Z,0
2023-01-04T15:34:32.517Z,0
2023-01-04T15:35:49.622Z,0
2023-01-04T15:37:06.727Z,0
2023-01-04T15:38:23.831Z,0
2023-01-04T15:39:40.937Z,0
2023-01-04T15:40:58.042Z,0
2023-01-04T15:42:15.147Z,0
2023-01-04T15:43:32.251Z,0
2023-01-04T15:44:49.357Z,0
2023-01-04T15:46:06.462Z,0
2023-01-04T15:47:23.567Z,0
2023-01-04T15:48:39.688Z,0
2023-01-04T15:49:56.793Z,0
2023-01-04T15:51:13.897Z,0
2023-01-04T15:52:31.002Z,0
2023-01-04T15:53:48.107Z,0
2023-01-04T15:55:05.211Z,0
2023-01-04T15:56:22.316Z,0
2023-01-04T15:57:39.421Z,0
2023-01-04T15:58:56.526Z,0
2023-01-04T16:00:13.631Z,0
2023-01-04T16:01:30.735Z,0
2023-01-04T16:02:46.861Z,0
2023-01-04T16:04:02.982Z,0
2023-01-04T16:05:20.086Z,0
2023-01-04T16:06:36.212Z,0
2023-01-04T16:07:52.333Z,0
2023-01-04T16:09:09.438Z,0
2023-01-04T16:10:26.543Z,0
2023-01-04T16:11:43.647Z,0
2023-01-04T16:13:00.752Z,0
2023-01-04T16:14:17.857Z,0
2023-01-04T16:15:34.962Z,0
2023-01-04T16:16:52.066Z,0
2023-01-04T16:18:09.171Z,0
2023-01-04T16:19:26.276Z,0
2023-01-04T16:20:43.381Z,0
2023-01-04T16:22:00.485Z,0
2023-01-04T16:23:17.590Z,0
2023-01-04T16:24:33.711Z,0
2023-01-04T16:25:50.816Z,0
2023-01-04T16:27:07.921Z,0
2023-01-04T16:28:25.025Z,0
2023-01-04T16:29:42.130Z,0
2023-01-04T16:30:59.235Z,0
2023-01-04T16:32:16.339Z,0
2023-01-04T16:33:32.465Z,0
2023-01-04T16:34:48.586Z,0
2023-01-04T16:36:04.712Z,0
2023-01-04T16:37:20.833Z,0
2023-01-04T16:38:37.938Z,0
2023-01-04T16:39:55.043Z,0
2023-01-04T16:41:12.147Z,0
2023-01-04T16:42:29.252Z,0
2023-01-04T16:43:46.357Z,0
2023-01-04T16:45:03.461Z,0
2023-01-04T16:46:20.566Z,0
2023-01-04T16:47:37.671Z,0
2023-01-04T16:48:54.775Z,0
2023-01-04T16:50:11.880Z,0
2023-01-04T16:51:28.985Z,0
2023-01-04T16:52:46.090Z,0
2023-01-04T16:54:02.210Z,0
2023-01-04T16:55:19.315Z,0
2023-01-04T16:56:36.420Z,0
2023-01-04T16:57:53.525Z,0
2023-01-04T16:59:10.630Z,0
2023-01-04T17:00:27.735Z,0
2023-01-04T17:01:44.840Z,0
2023-01-04T17:03:00.966Z,0
2023-01-04T17:04:17.086Z,0
2023-01-04T17:05:33.212Z,0
2023-01-04T17:06:49.333Z,0
2023-01-04T17:08:06.437Z,0
2023-01-04T17:09:23.542Z,0
2023-01-04T17:10:40.646Z,0
2023-01-04T17:11:57.751Z,0
2023-01-04T17:13:14.856Z,0
2023-01-04T17:14:31.960Z,0
2023-01-04T17:15:49.065Z,0
2023-01-04T17:17:06.170Z,0
2023-01-04T17:18:23.275Z,0
2023-01-04T17:19:40.377Z,0
2023-01-04T17:22:14.586Z,0
2023-01-04T17:23:30.707Z,0
2023-01-04T17:24:47.812Z,0
2023-01-04T17:26:04.916Z,0
2023-01-04T17:27:22.021Z,0
2023-01-04T17:28:39.126Z,0
2023-01-04T17:29:56.230Z,0
2023-01-04T17:31:13.335Z,0
2023-01-04T17:32:30.440Z,0
2023-01-04T17:33:47.544Z,0
2023-01-04T17:35:04.649Z,0
2023-01-04T17:36:21.754Z,0
2023-01-04T17:37:38.859Z,0
2023-01-04T17:38:55.964Z,0
2023-01-04T17:40:12.085Z,0
2023-01-04T17:41:29.190Z,0
2023-01-04T17:42:46.294Z,0
2023-01-04T17:44:03.399Z,0
2023-01-04T17:45:20.503Z,0
2023-01-04T17:46:37.608Z,0
2023-01-04T17:47:54.712Z,0
2023-01-04T17:49:11.817Z,0
2023-01-04T17:50:28.922Z,0
2023-01-04T17:51:46.026Z,0
2023-01-04T17:53:03.131Z,0
2023-01-04T17:54:20.236Z,0
2023-01-04T17:55:37.340Z,0
2023-01-04T17:56:53.461Z,0
2023-01-04T17:58:10.565Z,0
2023-01-04T17:59:27.670Z,0
2023-01-04T18:00:44.775Z,0
2023-01-04T18:02:01.879Z,0
2023-01-04T18:03:18.984Z,0
2023-01-04T18:04:36.089Z,0
2023-01-04T18:05:52.215Z,0
2023-01-04T18:07:08.335Z,0
2023-01-04T18:08:25.440Z,0
2023-01-04T18:09:41.566Z,0
2023-01-04T18:10:57.687Z,0
2023-01-04T18:12:14.791Z,0
2023-01-04T18:13:31.896Z,0
2023-01-04T18:14:49.000Z,0
2023-01-04T18:16:06.105Z,0
2023-01-04T18:17:23.210Z,0
2023-01-04T18:18:40.315Z,0
2023-01-04T18:19:57.419Z,0
2023-01-04T18:21:14.524Z,0
2023-01-04T18:22:31.628Z,0
2023-01-04T18:23:48.733Z,0
2023-01-04T18:25:05.838Z,0
2023-01-04T18:26:22.943Z,0
2023-01-04T18:27:39.064Z,0
2023-01-04T18:28:56.170Z,0
2023-01-04T18:30:13.274Z,0
2023-01-04T18:31:30.379Z,0
2023-01-04T18:32:47.483Z,0
2023-01-04T18:34:03.604Z,0
2023-01-04T18:35:20.708Z,0
2023-01-04T18:36:36.834Z,0
2023-01-04T18:37:52.955Z,0
2023-01-04T18:39:09.081Z,0
2023-01-04T18:40:25.202Z,0
2023-01-04T18:41:42.307Z,0
2023-01-04T18:42:59.411Z,0
2023-01-04T18:44:16.516Z,0
2023-01-04T18:45:33.621Z,0
2023-01-04T18:46:50.725Z,0
2023-01-04T18:49:24.935Z,0